Time;durP1;ratioP1;P1;durP2;ratioP2;P2;SDS_P1;SDS_P2;PMS_P1;PMS_P2;Temp;Humidity;BMP_temperature;BMP_pressure;BME280_temperature;BME280_humidity;BME280_pressure;Samples;Min_cycle;Max_cycle;Signal;HPM_P1;HPM_P2
2022/02/20 00:01:42;;;;;;;2.63;1.40;;;;;;;5.81;65.29;98154.56;5115965;28;20222;-71
2022/02/20 00:04:08;;;;;;;8.93;1.50;;;;;;;5.80;66.48;98150.25;5115851;28;20728;-71
2022/02/20 00:06:35;;;;;;;3.57;1.20;;;;;;;5.73;67.52;98169.81;5116147;28;20206;-71
2022/02/20 00:09:01;;;;;;;3.43;1.17;;;;;;;5.70;68.30;98169.97;5116066;28;20322;-71
2022/02/20 00:11:28;;;;;;;2.70;1.10;;;;;;;5.67;68.83;98175.34;5115791;28;20213;-69
2022/02/20 00:13:54;;;;;;;4.70;1.07;;;;;;;5.69;68.95;98168.25;5113989;28;20576;-70
2022/02/20 00:16:22;;;;;;;4.30;1.77;;;;;;;5.65;70.83;98161.47;5113859;28;20691;-71
2022/02/20 00:18:49;;;;;;;2.87;1.13;;;;;;;5.60;71.71;98155.63;5116057;28;20563;-71
2022/02/20 00:21:16;;;;;;;4.00;1.30;;;;;;;5.56;72.57;98140.13;5115647;28;20259;-71
2022/02/20 00:23:42;;;;;;;4.27;1.07;;;;;;;5.47;73.73;98140.56;5115653;28;20602;-71
2022/02/20 00:26:09;;;;;;;4.00;1.50;;;;;;;5.39;74.18;98106.88;5115858;28;20219;-71
2022/02/20 00:28:35;;;;;;;2.97;1.30;;;;;;;5.33;75.46;98117.66;5115730;28;20208;-72
2022/02/20 00:31:02;;;;;;;3.47;1.27;;;;;;;5.24;75.46;98122.47;5115794;28;20211;-71
2022/02/20 00:33:30;;;;;;;3.80;1.20;;;;;;;5.17;76.60;98132.41;5115622;28;20240;-71
2022/02/20 00:35:56;;;;;;;4.53;1.47;;;;;;;5.17;77.47;98126.31;5115363;28;20210;-70
2022/02/20 00:38:23;;;;;;;4.10;1.83;;;;;;;5.17;77.43;98116.69;5115377;28;20221;-71
2022/02/20 00:40:50;;;;;;;3.03;1.27;;;;;;;5.11;78.65;98140.56;5115514;28;20213;-71
2022/02/20 00:43:18;;;;;;;2.57;1.27;;;;;;;5.09;78.79;98133.69;5113457;28;20307;-69
2022/02/20 00:45:44;;;;;;;2.97;1.30;;;;;;;5.10;79.93;98135.38;5114753;28;20221;-70
2022/02/20 00:48:15;;;;;;;4.83;1.17;;;;;;;5.09;80.09;98139.78;5115199;28;20221;-70
2022/02/20 00:50:44;;;;;;;5.17;1.20;;;;;;;5.09;80.46;98141.53;5115117;28;20214;-70
2022/02/20 00:53:10;;;;;;;2.07;1.30;;;;;;;5.12;80.37;98118.69;5114937;28;20214;-71
2022/02/20 00:55:37;;;;;;;3.47;1.33;;;;;;;5.11;80.28;98137.94;5115304;28;20206;-69
2022/02/20 00:58:03;;;;;;;4.07;1.60;;;;;;;5.18;80.25;98139.34;5114905;28;20220;-70
2022/02/20 01:00:30;;;;;;;1.87;1.00;;;;;;;5.09;80.11;98150.28;5114693;28;20220;-69
2022/02/20 01:02:56;;;;;;;8.03;1.53;;;;;;;5.17;81.32;98142.03;5114809;28;20218;-69
2022/02/20 01:05:23;;;;;;;3.60;1.27;;;;;;;5.14;81.29;98131.72;5115012;28;20245;-69
2022/02/20 01:07:51;;;;;;;3.60;1.43;;;;;;;5.16;80.19;98129.84;5115046;28;20297;-69
2022/02/20 01:10:19;;;;;;;3.50;1.20;;;;;;;5.25;80.89;98119.78;5113394;28;20259;-69
2022/02/20 01:12:46;;;;;;;3.60;1.30;;;;;;;5.19;80.29;98135.78;5114689;28;20678;-70
2022/02/20 01:15:14;;;;;;;3.27;1.20;;;;;;;5.20;81.02;98140.09;5115012;28;20237;-70
2022/02/20 01:17:41;;;;;;;2.80;1.10;;;;;;;5.21;80.58;98149.69;5114544;28;20599;-70
2022/02/20 01:20:10;;;;;;;3.83;1.20;;;;;;;5.17;80.83;98137.66;5114313;28;20237;-70
2022/02/20 01:22:37;;;;;;;4.07;1.37;;;;;;;5.20;80.58;98131.41;5114482;28;20215;-72
2022/02/20 01:25:06;;;;;;;3.93;1.43;;;;;;;5.23;80.70;98142.59;5114657;28;20229;-71
2022/02/20 01:27:32;;;;;;;2.83;1.17;;;;;;;5.17;81.33;98137.66;5114537;28;20221;-72
2022/02/20 01:30:00;;;;;;;3.13;1.40;;;;;;;5.19;82.18;98135.78;5114526;28;20618;-72
2022/02/20 01:32:26;;;;;;;3.90;1.10;;;;;;;5.21;81.58;98128.72;5114394;28;20222;-71
2022/02/20 01:34:53;;;;;;;4.13;1.20;;;;;;;5.25;82.07;98129.44;5112796;28;20216;-70
2022/02/20 01:37:19;;;;;;;2.40;1.20;;;;;;;5.27;81.69;98127.56;5114455;28;20210;-72
2022/02/20 01:39:46;;;;;;;3.00;1.00;;;;;;;5.19;82.72;98129.72;5114288;28;20213;-72
2022/02/20 01:42:13;;;;;;;1.90;0.97;;;;;;;5.17;81.98;98132.41;5114250;28;20210;-70
2022/02/20 01:44:40;;;;;;;2.87;1.23;;;;;;;5.20;81.65;98127.00;5111238;28;20238;-70
2022/02/20 01:47:10;;;;;;;3.40;1.27;;;;;;;5.26;82.20;98121.47;5114254;28;20207;-70
2022/02/20 01:49:36;;;;;;;2.27;1.10;;;;;;;5.19;82.60;98127.94;5114390;28;20575;-70
2022/02/20 01:52:03;;;;;;;2.97;0.90;;;;;;;5.21;82.45;98133.09;5114172;28;20224;-70
2022/02/20 01:54:30;;;;;;;1.70;0.97;;;;;;;5.25;81.56;98134.66;5111694;28;20218;-71
2022/02/20 01:56:57;;;;;;;3.60;1.40;;;;;;;5.26;81.44;98133.75;5113461;28;20685;-71
2022/02/20 01:59:25;;;;;;;4.60;1.53;;;;;;;5.29;81.75;98137.06;5113318;28;20216;-70
2022/02/20 02:01:53;;;;;;;2.93;1.10;;;;;;;5.32;81.25;98133.44;5111596;28;20239;-70
2022/02/20 02:04:19;;;;;;;3.90;1.33;;;;;;;5.28;81.41;98140.59;5111000;28;20241;-70
2022/02/20 02:06:46;;;;;;;3.13;1.37;;;;;;;5.30;82.95;98140.50;5113689;28;20222;-70
2022/02/20 02:09:13;;;;;;;4.13;1.27;;;;;;;5.38;81.56;98141.84;5113706;28;20241;-70
2022/02/20 02:11:41;;;;;;;3.70;1.03;;;;;;;5.36;81.60;98142.84;5113386;28;20215;-71
2022/02/20 02:14:07;;;;;;;4.20;1.23;;;;;;;5.34;81.34;98155.16;5113473;28;20218;-70
2022/02/20 02:16:35;;;;;;;2.30;1.20;;;;;;;5.35;82.42;98139.38;5113286;28;20220;-70
2022/02/20 02:19:02;;;;;;;2.53;1.13;;;;;;;5.34;82.37;98153.41;5113746;28;20214;-70
2022/02/20 02:21:29;;;;;;;4.00;1.43;;;;;;;5.34;82.46;98153.41;5113303;28;20698;-70
2022/02/20 02:23:57;;;;;;;3.67;1.90;;;;;;;5.40;81.38;98160.97;5113315;28;20210;-70
2022/02/20 02:26:24;;;;;;;2.10;1.30;;;;;;;5.49;81.19;98152.66;5112472;28;20211;-70
2022/02/20 02:28:51;;;;;;;4.40;1.27;;;;;;;5.47;81.20;98145.78;5113498;28;20210;-70
2022/02/20 02:31:19;;;;;;;2.57;1.10;;;;;;;5.44;81.58;98146.78;5113453;28;20255;-70
2022/02/20 02:33:46;;;;;;;3.60;1.17;;;;;;;5.49;81.11;98150.03;5113175;28;20215;-70
2022/02/20 02:36:13;;;;;;;3.10;1.10;;;;;;;5.46;80.47;98150.19;5113690;28;20221;-72
2022/02/20 02:38:39;;;;;;;2.30;1.20;;;;;;;5.42;80.99;98143.41;5113302;28;20590;-72
2022/02/20 02:41:09;;;;;;;1.30;0.90;;;;;;;5.45;80.98;98138.00;5113183;28;20207;-71
2022/02/20 02:43:37;;;;;;;3.07;1.20;;;;;;;5.51;80.02;98140.31;5113254;28;20261;-71
2022/02/20 02:46:04;;;;;;;2.83;1.20;;;;;;;5.51;80.05;98148.19;5113084;28;20255;-72
2022/02/20 02:48:31;;;;;;;2.73;1.13;;;;;;;5.54;80.86;98132.31;5113312;28;20207;-72
2022/02/20 02:50:59;;;;;;;2.57;1.20;;;;;;;5.63;80.85;98139.72;5113065;28;20237;-72
2022/02/20 02:53:26;;;;;;;3.90;1.40;;;;;;;5.63;81.89;98146.75;5111672;28;20256;-71
2022/02/20 02:55:53;;;;;;;4.40;1.53;;;;;;;5.56;81.72;98133.09;5112992;28;20207;-72
2022/02/20 02:58:22;;;;;;;3.70;2.00;;;;;;;5.52;82.51;98139.41;5113400;28;20212;-72
2022/02/20 03:00:49;;;;;;;3.03;1.10;;;;;;;5.51;82.14;98140.31;5113442;28;20219;-72
2022/02/20 03:03:16;;;;;;;2.60;1.10;;;;;;;5.50;82.83;98146.50;5112964;28;20214;-71
2022/02/20 03:05:42;;;;;;;4.23;1.40;;;;;;;5.52;83.23;98142.03;5112766;28;20235;-71
2022/02/20 03:08:09;;;;;;;3.60;1.43;;;;;;;5.53;82.98;98137.63;5115663;28;20206;-70
2022/02/20 03:10:35;;;;;;;2.37;1.00;;;;;;;5.54;83.60;98142.81;5117240;28;20222;-70
2022/02/20 03:13:02;;;;;;;2.43;1.03;;;;;;;5.51;83.80;98137.69;5116948;28;20680;-70
2022/02/20 03:15:30;;;;;;;4.80;1.70;;;;;;;5.52;84.28;98157.78;5116985;28;20215;-70
2022/02/20 03:17:57;;;;;;;2.73;1.10;;;;;;;5.54;85.30;98155.91;5117279;28;20293;-70
2022/02/20 03:20:23;;;;;;;2.07;0.90;;;;;;;5.57;85.01;98163.59;5115111;28;20210;-70
2022/02/20 03:22:49;;;;;;;2.00;0.90;;;;;;;5.56;84.77;98161.91;5117273;28;20583;-70
2022/02/20 03:25:16;;;;;;;2.80;1.17;;;;;;;5.58;85.58;98160.09;5116848;28;20241;-70
2022/02/20 03:27:42;;;;;;;1.97;1.20;;;;;;;5.64;85.09;98170.28;5117081;28;20215;-70
2022/02/20 03:30:10;;;;;;;3.57;1.00;;;;;;;5.66;85.51;98176.28;5116834;28;20214;-70
2022/02/20 03:32:38;;;;;;;3.37;1.20;;;;;;;5.65;86.00;98176.34;5116933;28;20214;-70
2022/02/20 03:35:05;;;;;;;2.37;1.07;;;;;;;5.69;85.08;98178.75;5116587;28;20215;-70
2022/02/20 03:37:32;;;;;;;2.80;0.90;;;;;;;5.68;85.83;98177.03;5116791;28;20217;-70
2022/02/20 03:39:58;;;;;;;2.57;1.13;;;;;;;5.68;85.83;98169.19;5116834;28;20231;-70
2022/02/20 03:42:25;;;;;;;2.50;0.80;;;;;;;5.68;85.83;98176.22;5116756;28;20300;-70
2022/02/20 03:44:51;;;;;;;1.80;0.80;;;;;;;5.69;86.45;98172.66;5114895;28;20368;-70
2022/02/20 03:47:17;;;;;;;2.70;0.93;;;;;;;5.68;86.12;98182.28;5116956;28;20220;-70
2022/02/20 03:49:45;;;;;;;4.13;1.03;;;;;;;5.70;86.30;98187.47;5116811;28;20353;-70
2022/02/20 03:52:12;;;;;;;1.77;0.97;;;;;;;5.74;86.77;98187.22;5113919;28;20679;-70
2022/02/20 03:54:38;;;;;;;3.53;0.90;;;;;;;5.70;88.74;98185.72;5116349;28;20215;-70
2022/02/20 03:57:05;;;;;;;3.10;1.20;;;;;;;5.69;89.24;98181.38;5116567;28;20214;-70
2022/02/20 03:59:31;;;;;;;3.60;1.07;;;;;;;5.66;89.11;98186.78;5116532;28;20210;-70
2022/02/20 04:01:58;;;;;;;2.60;0.90;;;;;;;5.62;90.34;98187.00;5116062;28;20220;-70
2022/02/20 04:04:24;;;;;;;2.10;0.90;;;;;;;5.60;90.90;98184.44;5115756;28;20226;-70
2022/02/20 04:06:52;;;;;;;1.77;1.10;;;;;;;5.57;91.18;98196.84;5116007;28;20695;-70
2022/02/20 04:09:19;;;;;;;2.13;1.00;;;;;;;5.54;91.47;98195.22;5115846;28;20272;-70
2022/02/20 04:11:45;;;;;;;3.83;1.20;;;;;;;5.51;91.60;98189.28;5114432;28;20691;-70
2022/02/20 04:14:12;;;;;;;1.33;0.90;;;;;;;5.51;92.38;98199.78;5115793;28;20688;-70
2022/02/20 04:16:38;;;;;;;1.70;1.00;;;;;;;5.48;91.55;98213.00;5115932;28;20587;-71
2022/02/20 04:19:04;;;;;;;3.50;1.00;;;;;;;5.51;91.41;98221.56;5114816;28;20219;-70
2022/02/20 04:21:31;;;;;;;3.20;1.10;;;;;;;5.54;93.46;98218.81;5116010;28;20217;-71
2022/02/20 04:23:59;;;;;;;1.10;0.80;;;;;;;5.54;95.47;98224.06;5112853;28;20218;-70
2022/02/20 04:26:25;;;;;;;2.17;0.93;;;;;;;5.53;95.75;98237.25;5115228;28;20235;-70
2022/02/20 04:28:52;;;;;;;2.93;1.07;;;;;;;5.53;96.89;98219.75;5115664;28;20215;-70
2022/02/20 04:31:19;;;;;;;2.20;0.90;;;;;;;5.48;96.71;98221.75;5115511;28;20307;-70
2022/02/20 04:33:46;;;;;;;1.63;1.00;;;;;;;5.45;96.83;98237.59;5115341;28;20678;-70
2022/02/20 04:36:12;;;;;;;2.83;0.80;;;;;;;5.46;96.77;98235.84;5115586;28;20256;-70
2022/02/20 04:38:39;;;;;;;2.30;0.97;;;;;;;5.53;98.04;98232.00;5114694;28;20217;-70
2022/02/20 04:41:07;;;;;;;2.60;0.90;;;;;;;5.48;97.35;98231.34;5115770;28;20211;-70
2022/02/20 04:43:33;;;;;;;3.40;0.90;;;;;;;5.39;97.76;98235.28;5115697;28;20218;-70
2022/02/20 04:46:00;;;;;;;2.17;1.07;;;;;;;5.36;98.78;98237.19;5115408;28;20244;-70
2022/02/20 04:48:27;;;;;;;2.30;1.00;;;;;;;5.39;98.41;98231.81;5115496;28;20292;-70
2022/02/20 04:50:53;;;;;;;1.50;0.80;;;;;;;5.40;98.48;98239.59;5115210;28;20252;-70
2022/02/20 04:53:19;;;;;;;2.80;0.80;;;;;;;5.40;99.90;98242.22;5115389;28;20215;-70
2022/02/20 04:55:46;;;;;;;2.43;0.80;;;;;;;5.37;100.00;98254.63;5105399;28;20219;-70
2022/02/20 04:58:14;;;;;;;1.23;0.73;;;;;;;5.36;100.00;98248.53;5115298;28;20220;-70
2022/02/20 05:00:41;;;;;;;2.20;0.80;;;;;;;5.38;100.00;98241.44;5115250;28;20208;-70
2022/02/20 05:03:07;;;;;;;1.87;0.70;;;;;;;5.40;100.00;98244.00;5113336;28;20217;-70
2022/02/20 05:05:37;;;;;;;2.30;0.80;;;;;;;5.42;100.00;98248.25;5114709;28;20234;-70
2022/02/20 05:08:04;;;;;;;1.27;0.77;;;;;;;5.43;99.47;98256.97;5114752;28;20215;-70
2022/02/20 05:10:31;;;;;;;1.03;0.60;;;;;;;5.44;100.00;98256.88;5115262;28;20614;-70
2022/02/20 05:12:57;;;;;;;1.30;0.67;;;;;;;5.30;100.00;98254.06;5114967;28;20589;-70
2022/02/20 05:15:25;;;;;;;1.13;0.70;;;;;;;5.35;100.00;98252.06;5114774;28;20216;-70
2022/02/20 05:17:51;;;;;;;1.93;0.80;;;;;;;5.36;100.00;98242.41;5114929;28;20332;-70
2022/02/20 05:20:18;;;;;;;2.00;0.70;;;;;;;5.37;100.00;98255.47;5114923;28;20233;-70
2022/02/20 05:22:44;;;;;;;2.27;0.80;;;;;;;5.34;100.00;98260.00;5114750;28;20219;-70
2022/02/20 05:25:11;;;;;;;1.53;0.73;;;;;;;5.35;100.00;98246.81;5114335;28;20229;-71
2022/02/20 05:27:37;;;;;;;0.80;0.70;;;;;;;5.37;100.00;98249.38;5114410;28;20672;-71
2022/02/20 05:30:05;;;;;;;2.30;0.80;;;;;;;5.36;100.00;98252.91;5112802;28;20218;-70
2022/02/20 05:32:32;;;;;;;1.37;0.60;;;;;;;5.37;100.00;98242.34;5112351;28;20690;-71
2022/02/20 05:34:59;;;;;;;1.60;0.80;;;;;;;5.35;100.00;98245.97;5114266;28;20221;-70
2022/02/20 05:37:25;;;;;;;1.27;0.70;;;;;;;5.36;100.00;98237.19;5114584;28;20216;-70
2022/02/20 05:39:52;;;;;;;1.50;0.67;;;;;;;5.33;100.00;98243.44;5114486;28;20219;-70
2022/02/20 05:42:19;;;;;;;1.63;0.80;;;;;;;5.35;100.00;98236.34;5114296;28;20578;-70
2022/02/20 05:44:45;;;;;;;0.80;0.50;;;;;;;5.29;100.00;98244.50;5114489;28;20214;-70
2022/02/20 05:47:13;;;;;;;1.00;0.70;;;;;;;5.24;100.00;98243.84;5114038;28;20240;-70
2022/02/20 05:49:41;;;;;;;1.50;0.70;;;;;;;5.28;100.00;98242.78;5114433;28;20214;-70
2022/02/20 05:52:08;;;;;;;1.47;0.70;;;;;;;5.36;100.00;98242.41;5113953;28;20240;-70
2022/02/20 05:54:34;;;;;;;1.17;0.90;;;;;;;5.37;100.00;98242.34;5112549;28;20594;-70
2022/02/20 05:57:01;;;;;;;0.93;0.60;;;;;;;5.37;100.00;98239.72;5114034;28;20583;-71
2022/02/20 05:59:27;;;;;;;1.23;0.80;;;;;;;5.47;100.00;98241.00;5114030;28;20220;-70
2022/02/20 06:01:54;;;;;;;0.60;0.57;;;;;;;5.46;100.00;98243.69;5113906;28;20219;-71
2022/02/20 06:04:20;;;;;;;0.60;0.60;;;;;;;5.43;100.00;98247.31;5113924;28;20212;-71
2022/02/20 06:06:48;;;;;;;3.27;0.70;;;;;;;5.51;100.00;98236.47;5113925;28;20236;-70
2022/02/20 06:09:14;;;;;;;1.50;0.73;;;;;;;5.51;100.00;98237.31;5113682;28;20739;-71
2022/02/20 06:11:41;;;;;;;0.90;0.70;;;;;;;5.51;100.00;98247.78;5111942;28;20212;-71
2022/02/20 06:14:07;;;;;;;0.77;0.70;;;;;;;5.53;100.00;98250.34;5113445;28;20211;-71
2022/02/20 06:16:34;;;;;;;2.63;0.90;;;;;;;5.52;100.00;98260.00;5113420;28;20202;-71
2022/02/20 06:19:00;;;;;;;1.90;0.77;;;;;;;5.46;100.00;98257.66;5113811;28;20608;-70
2022/02/20 06:21:27;;;;;;;1.73;0.80;;;;;;;5.47;100.00;98267.22;5112021;28;20213;-70
2022/02/20 06:23:55;;;;;;;1.53;0.80;;;;;;;5.46;100.00;98254.19;5113697;28;20214;-70
2022/02/20 06:26:21;;;;;;;1.07;0.90;;;;;;;5.46;100.00;98254.19;5113383;28;20707;-70
2022/02/20 06:28:48;;;;;;;1.30;0.70;;;;;;;5.53;100.00;98269.56;5113752;28;20210;-70
2022/02/20 06:31:15;;;;;;;0.93;0.70;;;;;;;5.48;100.00;98263.69;5113362;28;20219;-70
2022/02/20 06:33:42;;;;;;;0.70;0.70;;;;;;;5.51;100.00;98278.41;5113606;28;20576;-70
2022/02/20 06:36:09;;;;;;;0.90;0.80;;;;;;;5.54;100.00;98273.88;5113729;28;20221;-70
2022/02/20 06:38:35;;;;;;;1.53;0.63;;;;;;;5.62;98.81;98282.22;5113274;28;20209;-70
2022/02/20 06:41:03;;;;;;;1.37;0.50;;;;;;;5.70;98.90;98287.97;5113359;28;20207;-70
2022/02/20 06:43:29;;;;;;;1.10;0.60;;;;;;;5.76;98.20;98290.31;5112582;28;20218;-70
2022/02/20 06:45:56;;;;;;;0.80;0.70;;;;;;;5.73;97.65;98286.97;5113206;28;20703;-70
2022/02/20 06:48:23;;;;;;;1.10;0.50;;;;;;;5.76;97.54;98295.56;5111623;28;20678;-71
2022/02/20 06:50:49;;;;;;;1.80;0.60;;;;;;;5.78;97.81;98296.31;5113501;28;20210;-70
2022/02/20 06:53:16;;;;;;;2.10;0.87;;;;;;;5.82;98.21;98307.53;5113128;28;20210;-70
2022/02/20 06:55:42;;;;;;;1.00;0.60;;;;;;;5.83;100.00;98310.09;5113155;28;20215;-71
2022/02/20 06:58:10;;;;;;;1.57;0.60;;;;;;;5.85;99.50;98310.88;5113260;28;20218;-71
2022/02/20 07:00:36;;;;;;;0.70;0.60;;;;;;;5.81;99.50;98311.91;5113102;28;20210;-71
2022/02/20 07:03:03;;;;;;;0.60;0.60;;;;;;;5.82;99.71;98308.41;5113189;28;20218;-71
2022/02/20 07:05:29;;;;;;;0.70;0.70;;;;;;;5.82;99.42;98315.41;5112950;28;20219;-71
2022/02/20 07:07:57;;;;;;;1.63;0.70;;;;;;;5.79;100.00;98326.00;5113255;28;20221;-70
2022/02/20 07:10:24;;;;;;;1.17;0.60;;;;;;;5.75;100.00;98320.03;5113228;28;20785;-70
2022/02/20 07:12:50;;;;;;;0.57;0.50;;;;;;;5.80;100.00;98327.75;5111286;28;20217;-70
2022/02/20 07:15:18;;;;;;;0.70;0.50;;;;;;;5.81;99.32;98326.81;5113249;28;20214;-70
2022/02/20 07:17:45;;;;;;;1.10;0.73;;;;;;;5.86;99.26;98324.84;5113267;28;20214;-70
2022/02/20 07:20:12;;;;;;;0.50;0.50;;;;;;;5.86;97.90;98327.47;5112772;28;20704;-70
2022/02/20 07:22:39;;;;;;;0.50;0.50;;;;;;;5.92;97.78;98333.25;5110878;28;20211;-70
2022/02/20 07:25:07;;;;;;;1.17;0.83;;;;;;;5.98;96.49;98335.59;5112890;28;20307;-70
2022/02/20 07:27:37;;;;;;;1.50;0.70;;;;;;;6.06;96.00;98345.72;5113194;28;20241;-70
2022/02/20 07:30:05;;;;;;;1.53;0.70;;;;;;;6.09;95.70;98332.44;5113135;28;20626;-70
2022/02/20 07:32:33;;;;;;;0.70;0.50;;;;;;;6.19;96.00;98339.81;5113016;28;20212;-70
2022/02/20 07:34:59;;;;;;;2.10;0.60;;;;;;;6.17;95.19;98328.53;5112755;28;20214;-70
2022/02/20 07:37:28;;;;;;;3.27;0.80;;;;;;;6.19;95.46;98315.34;5112702;28;20586;-70
2022/02/20 07:39:54;;;;;;;1.50;0.73;;;;;;;6.18;94.84;98314.47;5111291;28;20299;-71
2022/02/20 07:42:21;;;;;;;0.50;0.50;;;;;;;6.22;94.85;98313.41;5113059;28;20219;-70
2022/02/20 07:44:47;;;;;;;3.63;0.97;;;;;;;6.23;94.86;98317.72;5112723;28;20215;-70
2022/02/20 07:47:14;;;;;;;1.33;0.60;;;;;;;6.35;93.95;98317.13;5112757;28;20307;-70
2022/02/20 07:49:42;;;;;;;0.80;0.60;;;;;;;6.49;92.88;98314.69;5112816;28;20214;-70
2022/02/20 07:52:08;;;;;;;0.60;0.47;;;;;;;6.49;92.42;98314.69;5110445;28;20307;-71
2022/02/20 07:54:35;;;;;;;1.27;0.60;;;;;;;6.57;93.00;98312.50;5115821;28;20206;-71
2022/02/20 07:57:01;;;;;;;0.67;0.50;;;;;;;6.62;92.21;98321.03;5116190;28;20215;-70
2022/02/20 07:59:28;;;;;;;1.33;0.70;;;;;;;6.75;91.84;98316.84;5116381;28;20220;-71
2022/02/20 08:01:54;;;;;;;1.17;0.70;;;;;;;6.79;91.42;98318.34;5116027;28;20212;-70
2022/02/20 08:04:21;;;;;;;1.50;0.80;;;;;;;6.83;91.34;98308.56;5115469;28;20214;-70
2022/02/20 08:06:49;;;;;;;1.70;0.60;;;;;;;6.93;91.25;98309.78;5115669;28;20234;-70
2022/02/20 08:09:15;;;;;;;2.40;0.70;;;;;;;6.89;90.35;98298.56;5116360;28;20600;-70
2022/02/20 08:11:42;;;;;;;1.53;0.70;;;;;;;6.95;90.93;98290.38;5116384;28;20214;-70
2022/02/20 08:14:08;;;;;;;1.73;0.60;;;;;;;7.00;90.33;98284.88;5116226;28;20219;-71
2022/02/20 08:16:35;;;;;;;0.87;0.60;;;;;;;6.97;90.41;98298.19;5115737;28;20212;-71
2022/02/20 08:19:02;;;;;;;0.83;0.70;;;;;;;7.01;89.92;98282.19;5116097;28;20226;-71
2022/02/20 08:21:29;;;;;;;2.23;0.60;;;;;;;7.18;89.60;98304.00;5115762;28;20211;-71
2022/02/20 08:23:57;;;;;;;0.60;0.60;;;;;;;7.38;88.42;98292.44;5115622;28;20210;-70
2022/02/20 08:26:23;;;;;;;1.60;0.50;;;;;;;7.51;87.29;98293.44;5115889;28;20600;-71
2022/02/20 08:28:50;;;;;;;0.87;0.60;;;;;;;7.68;86.55;98301.28;5115943;28;20213;-71
2022/02/20 08:31:16;;;;;;;1.50;0.80;;;;;;;7.63;86.67;98298.03;5114114;28;20217;-71
2022/02/20 08:33:43;;;;;;;0.80;0.60;;;;;;;7.67;86.20;98297.81;5115712;28;20555;-72
2022/02/20 08:36:10;;;;;;;1.23;0.73;;;;;;;7.75;85.92;98308.75;5115436;28;20221;-70
2022/02/20 08:38:37;;;;;;;1.63;0.70;;;;;;;7.78;85.58;98310.38;5115371;28;20242;-71
2022/02/20 08:41:05;;;;;;;1.50;0.90;;;;;;;7.79;84.73;98306.81;5115179;28;20663;-72
2022/02/20 08:43:32;;;;;;;1.03;0.73;;;;;;;7.86;84.26;98316.91;5115372;28;20218;-69
2022/02/20 08:45:58;;;;;;;2.47;0.70;;;;;;;7.87;84.73;98323.00;5115202;28;20661;-70
2022/02/20 08:48:24;;;;;;;1.93;0.70;;;;;;;7.89;83.89;98322.00;5115484;28;20214;-70
2022/02/20 08:50:51;;;;;;;1.40;0.83;;;;;;;7.95;83.96;98305.84;5115414;28;20232;-70
2022/02/20 08:53:18;;;;;;;1.23;0.60;;;;;;;8.03;82.89;98297.53;5115392;28;20218;-70
2022/02/20 08:55:44;;;;;;;2.40;0.80;;;;;;;7.97;82.69;98303.97;5115171;28;20218;-70
2022/02/20 08:58:12;;;;;;;1.07;0.80;;;;;;;8.07;82.25;98299.03;5113760;28;20671;-70
2022/02/20 09:00:39;;;;;;;1.97;0.60;;;;;;;8.14;82.58;98303.06;5115090;28;20216;-70
2022/02/20 09:03:05;;;;;;;2.60;0.70;;;;;;;8.25;82.73;98300.66;5115168;28;20266;-70
2022/02/20 09:05:32;;;;;;;1.20;0.60;;;;;;;8.32;81.78;98315.22;5102973;28;20219;-71
2022/02/20 09:07:58;;;;;;;1.23;0.70;;;;;;;8.27;81.81;98314.63;5110864;28;20243;-70
2022/02/20 09:10:24;;;;;;;3.13;1.00;;;;;;;8.20;81.03;98318.53;5113553;28;20246;-70
2022/02/20 09:12:51;;;;;;;1.63;0.60;;;;;;;8.40;80.97;98318.25;5114617;28;20213;-70
2022/02/20 09:15:19;;;;;;;1.33;0.60;;;;;;;8.49;79.47;98296.63;5113800;28;20681;-70
2022/02/20 09:17:46;;;;;;;1.20;0.70;;;;;;;8.51;80.33;98302.66;5113560;28;20461;-69
2022/02/20 09:20:12;;;;;;;0.53;0.50;;;;;;;8.54;79.56;98303.34;5114736;28;20208;-69
2022/02/20 09:22:41;;;;;;;1.53;0.60;;;;;;;8.67;79.68;98306.94;5114322;28;20303;-69
2022/02/20 09:25:10;;;;;;;1.03;0.73;;;;;;;8.83;79.61;98291.06;5113275;28;20213;-69
2022/02/20 09:27:37;;;;;;;2.27;0.77;;;;;;;8.77;77.21;98291.44;5114620;28;20237;-69
2022/02/20 09:30:04;;;;;;;1.23;0.57;;;;;;;8.85;77.80;98294.44;5114442;28;20594;-69
2022/02/20 09:32:32;;;;;;;1.30;0.70;;;;;;;9.04;77.22;98295.03;5114198;28;20704;-70
2022/02/20 09:35:00;;;;;;;1.07;0.60;;;;;;;9.03;76.25;98303.91;5114245;28;20212;-69
2022/02/20 09:37:27;;;;;;;1.47;0.50;;;;;;;9.01;75.89;98297.88;5114467;28;20564;-69
2022/02/20 09:39:53;;;;;;;1.40;0.60;;;;;;;8.83;76.89;98285.81;5114360;28;20584;-70
2022/02/20 09:42:20;;;;;;;1.23;0.70;;;;;;;8.95;77.27;98285.94;5114430;28;20215;-69
2022/02/20 09:44:47;;;;;;;0.97;0.60;;;;;;;8.92;77.29;98286.09;5114280;28;20217;-69
2022/02/20 09:47:14;;;;;;;0.67;0.50;;;;;;;8.89;76.65;98274.91;5114072;28;20238;-69
2022/02/20 09:49:44;;;;;;;0.60;0.50;;;;;;;8.87;77.18;98282.06;5112782;28;20611;-71
2022/02/20 09:52:10;;;;;;;1.17;0.50;;;;;;;8.85;77.25;98270.72;5112416;28;20567;-69
2022/02/20 09:54:37;;;;;;;0.60;0.60;;;;;;;8.74;78.07;98267.88;5114092;28;20212;-69
2022/02/20 09:57:04;;;;;;;1.07;0.60;;;;;;;8.73;77.86;98282.00;5114047;28;20274;-69
2022/02/20 09:59:30;;;;;;;1.00;0.50;;;;;;;8.68;77.47;98281.44;5113850;28;20220;-69
2022/02/20 10:02:07;;;;;;;1.50;0.60;;;;;;;8.60;79.02;98263.47;5111884;28;20224;-69
2022/02/20 10:04:39;;;;;;;0.87;0.40;;;;;;;8.68;79.26;98270.88;5103116;28;20219;-69
2022/02/20 10:07:08;;;;;;;0.67;0.50;;;;;;;8.77;78.00;98275.63;5113934;28;20610;-69
2022/02/20 10:09:38;;;;;;;0.50;0.50;;;;;;;8.86;77.71;98264.53;5114215;28;20244;-69
2022/02/20 10:12:18;;;;;;;0.57;0.50;;;;;;;8.87;76.81;98259.16;5113660;28;20212;-70
2022/02/20 10:14:45;;;;;;;0.57;0.50;;;;;;;9.01;76.33;98255.69;5113922;28;20246;-69
2022/02/20 10:17:12;;;;;;;1.23;0.50;;;;;;;9.24;75.48;98265.69;5111240;28;20213;-70
2022/02/20 10:19:54;;;;;;;0.70;0.50;;;;;;;9.35;75.32;98271.13;5111596;28;20209;-70
2022/02/20 10:22:30;;;;;;;0.90;0.50;;;;;;;9.49;73.98;98265.84;5103723;28;20221;-70
2022/02/20 10:25:06;;;;;;;1.13;0.60;;;;;;;9.46;73.66;98266.91;5114020;28;20224;-69
2022/02/20 10:27:33;;;;;;;0.87;0.40;;;;;;;9.45;73.64;98269.63;5111101;28;20244;-69
2022/02/20 10:30:21;;;;;;;0.83;0.47;;;;;;;9.56;73.74;98273.31;5112817;28;20221;-69
2022/02/20 10:33:05;;;;;;;0.40;0.40;;;;;;;9.73;74.42;98273.06;5113423;28;20219;-69
2022/02/20 10:35:33;;;;;;;0.53;0.47;;;;;;;9.85;72.73;98258.25;5112691;28;20219;-70
2022/02/20 10:38:06;;;;;;;0.50;0.40;;;;;;;9.87;72.43;98251.94;5102824;28;20211;-69
2022/02/20 10:40:32;;;;;;;0.83;0.70;;;;;;;9.93;71.73;98254.19;5113322;28;20214;-70
2022/02/20 10:43:01;;;;;;;1.07;0.43;;;;;;;9.97;71.54;98257.47;5111519;28;20236;-70
2022/02/20 10:45:29;;;;;;;0.93;0.40;;;;;;;9.94;71.91;98262.91;5112905;28;20214;-69
2022/02/20 10:47:57;;;;;;;1.50;0.50;;;;;;;9.95;72.74;98254.91;5112991;28;20241;-69
2022/02/20 10:50:25;;;;;;;1.00;0.50;;;;;;;9.81;72.93;98243.53;5113324;28;20218;-69
2022/02/20 10:53:07;;;;;;;0.70;0.70;;;;;;;9.70;73.09;98235.47;5113201;28;20225;-69
2022/02/20 10:55:39;;;;;;;0.70;0.70;;;;;;;9.86;73.92;98237.00;5112212;28;20220;-70
2022/02/20 10:58:10;;;;;;;0.63;0.53;;;;;;;10.05;73.23;98213.81;5113012;28;20221;-70
2022/02/20 11:00:47;;;;;;;0.50;0.50;;;;;;;9.99;71.65;98213.31;5112977;28;20300;-70
2022/02/20 11:03:14;;;;;;;0.40;0.40;;;;;;;9.94;72.28;98207.47;5110520;28;20216;-71
2022/02/20 11:05:41;;;;;;;1.07;0.50;;;;;;;10.07;71.28;98205.75;5113405;28;20221;-70
2022/02/20 11:08:10;;;;;;;0.77;0.67;;;;;;;10.05;71.70;98210.31;5111086;28;20691;-73
2022/02/20 11:10:39;;;;;;;0.90;0.70;;;;;;;10.07;71.55;98214.53;5110229;28;20218;-72
2022/02/20 11:13:08;;;;;;;1.00;0.60;;;;;;;9.88;71.07;98205.25;5111009;28;20571;-72
2022/02/20 11:15:35;;;;;;;1.27;0.40;;;;;;;9.69;71.78;98205.59;5113124;28;20213;-72
2022/02/20 11:18:04;;;;;;;0.80;0.50;;;;;;;9.67;72.90;98211.91;5112900;28;20271;-72
2022/02/20 11:20:31;;;;;;;1.90;0.50;;;;;;;9.76;72.50;98211.31;5113058;28;20277;-72
2022/02/20 11:23:01;;;;;;;0.80;0.60;;;;;;;9.69;72.42;98202.97;5112987;28;20220;-72
2022/02/20 11:25:30;;;;;;;0.60;0.60;;;;;;;9.62;73.41;98206.91;5113100;28;20217;-72
2022/02/20 11:27:58;;;;;;;1.23;0.70;;;;;;;9.69;72.09;98202.09;5113615;28;20240;-71
2022/02/20 11:30:25;;;;;;;0.93;0.50;;;;;;;9.76;71.94;98180.50;5117012;28;20217;-72
2022/02/20 11:32:53;;;;;;;0.90;0.60;;;;;;;9.72;72.37;98188.72;5116984;28;20225;-72
2022/02/20 11:35:20;;;;;;;0.90;0.63;;;;;;;9.75;72.49;98175.31;5115038;28;20216;-71
2022/02/20 11:37:47;;;;;;;0.63;0.50;;;;;;;9.71;71.99;98164.13;5116586;28;20218;-71
2022/02/20 11:40:16;;;;;;;0.93;0.53;;;;;;;9.84;71.89;98162.38;5116705;28;20207;-72
2022/02/20 11:43:10;;;;;;;0.50;0.50;;;;;;;9.91;71.61;98155.72;5116433;28;20249;-71